sensor_id;sensor_type;location;lat;lon;timestamp;temperature;humidity
26479;DHT22;14163;-26.142;27.992;2023-11-18T00:01:48;23.10;99.90
26479;DHT22;14163;-26.142;27.992;2023-11-18T00:04:18;23.00;99.90
26479;DHT22;14163;-26.142;27.992;2023-11-18T00:06:47;23.00;99.90
26479;DHT22;14163;-26.142;27.992;2023-11-18T00:09:18;22.90;99.90
26479;DHT22;14163;-26.142;27.992;2023-11-18T00:11:47;22.90;99.90
26479;DHT22;14163;-26.142;27.992;2023-11-18T00:14:17;22.90;99.90
26479;DHT22;14163;-26.142;27.992;2023-11-18T00:16:47;22.90;99.90
26479;DHT22;14163;-26.142;27.992;2023-11-18T00:19:17;23.00;99.90
26479;DHT22;14163;-26.142;27.992;2023-11-18T00:21:46;23.00;99.90
26479;DHT22;14163;-26.142;27.992;2023-11-18T00:24:17;23.00;99.90
26479;DHT22;14163;-26.142;27.992;2023-11-18T00:26:46;23.00;99.90
26479;DHT22;14163;-26.142;27.992;2023-11-18T00:29:15;23.00;99.90
26479;DHT22;14163;-26.142;27.992;2023-11-18T00:31:44;23.10;99.90
26479;DHT22;14163;-26.142;27.992;2023-11-18T00:34:13;23.20;99.90
26479;DHT22;14163;-26.142;27.992;2023-11-18T00:36:42;23.20;99.90
26479;DHT22;14163;-26.142;27.992;2023-11-18T00:39:12;23.10;99.90
26479;DHT22;14163;-26.142;27.992;2023-11-18T00:41:43;23.10;99.90
26479;DHT22;14163;-26.142;27.992;2023-11-18T00:44:12;23.20;99.90
26479;DHT22;14163;-26.142;27.992;2023-11-18T00:46:41;23.20;99.90
26479;DHT22;14163;-26.142;27.992;2023-11-18T00:49:11;23.30;99.90
26479;DHT22;14163;-26.142;27.992;2023-11-18T00:51:40;23.30;99.90
26479;DHT22;14163;-26.142;27.992;2023-11-18T00:54:10;23.40;99.90
26479;DHT22;14163;-26.142;27.992;2023-11-18T00:56:41;23.50;99.90
26479;DHT22;14163;-26.142;27.992;2023-11-18T00:59:10;23.40;99.90
26479;DHT22;14163;-26.142;27.992;2023-11-18T01:01:39;23.40;99.90
26479;DHT22;14163;-26.142;27.992;2023-11-18T01:04:08;23.30;99.90
26479;DHT22;14163;-26.142;27.992;2023-11-18T01:06:37;23.30;99.90
26479;DHT22;14163;-26.142;27.992;2023-11-18T01:09:07;23.30;99.90
26479;DHT22;14163;-26.142;27.992;2023-11-18T01:11:36;23.30;99.90
26479;DHT22;14163;-26.142;27.992;2023-11-18T01:14:07;23.30;99.90
26479;DHT22;14163;-26.142;27.992;2023-11-18T01:16:36;23.30;99.90
26479;DHT22;14163;-26.142;27.992;2023-11-18T01:19:06;23.20;99.90
26479;DHT22;14163;-26.142;27.992;2023-11-18T01:21:36;23.20;99.90
26479;DHT22;14163;-26.142;27.992;2023-11-18T01:24:05;23.20;99.90
26479;DHT22;14163;-26.142;27.992;2023-11-18T01:26:35;23.30;99.90
26479;DHT22;14163;-26.142;27.992;2023-11-18T01:29:06;23.30;99.90
26479;DHT22;14163;-26.142;27.992;2023-11-18T01:31:35;23.30;99.90
26479;DHT22;14163;-26.142;27.992;2023-11-18T01:34:09;23.30;99.90
26479;DHT22;14163;-26.142;27.992;2023-11-18T01:36:40;23.40;99.90
26479;DHT22;14163;-26.142;27.992;2023-11-18T01:39:10;23.40;99.90
26479;DHT22;14163;-26.142;27.992;2023-11-18T01:41:40;23.30;99.90
26479;DHT22;14163;-26.142;27.992;2023-11-18T01:44:11;23.30;99.90
26479;DHT22;14163;-26.142;27.992;2023-11-18T01:46:42;23.20;99.90
26479;DHT22;14163;-26.142;27.992;2023-11-18T01:49:12;23.20;99.90
26479;DHT22;14163;-26.142;27.992;2023-11-18T01:51:42;23.20;99.90
26479;DHT22;14163;-26.142;27.992;2023-11-18T01:54:13;23.30;99.90
26479;DHT22;14163;-26.142;27.992;2023-11-18T01:56:48;23.30;99.90
26479;DHT22;14163;-26.142;27.992;2023-11-18T01:59:20;23.30;99.90
26479;DHT22;14163;-26.142;27.992;2023-11-18T02:01:50;23.40;99.90
26479;DHT22;14163;-26.142;27.992;2023-11-18T02:04:20;23.30;99.90
26479;DHT22;14163;-26.142;27.992;2023-11-18T02:06:49;23.30;99.90
26479;DHT22;14163;-26.142;27.992;2023-11-18T02:09:20;23.40;99.90
26479;DHT22;14163;-26.142;27.992;2023-11-18T02:11:59;23.40;99.90
26479;DHT22;14163;-26.142;27.992;2023-11-18T02:14:33;23.30;99.90
26479;DHT22;14163;-26.142;27.992;2023-11-18T02:17:05;23.40;99.90
26479;DHT22;14163;-26.142;27.992;2023-11-18T02:19:36;23.40;99.90
26479;DHT22;14163;-26.142;27.992;2023-11-18T02:22:07;23.50;99.90
26479;DHT22;14163;-26.142;27.992;2023-11-18T02:24:38;23.40;99.90
26479;DHT22;14163;-26.142;27.992;2023-11-18T02:27:09;23.30;99.90
26479;DHT22;14163;-26.142;27.992;2023-11-18T02:29:44;23.30;99.90
26479;DHT22;14163;-26.142;27.992;2023-11-18T02:32:23;23.30;99.90
26479;DHT22;14163;-26.142;27.992;2023-11-18T02:35:09;23.30;99.90
26479;DHT22;14163;-26.142;27.992;2023-11-18T02:37:42;23.30;99.90
26479;DHT22;14163;-26.142;27.992;2023-11-18T02:40:23;23.30;99.90
26479;DHT22;14163;-26.142;27.992;2023-11-18T02:42:59;23.30;99.90
26479;DHT22;14163;-26.142;27.992;2023-11-18T02:45:32;23.30;99.90
26479;DHT22;14163;-26.142;27.992;2023-11-18T02:48:03;23.40;99.90
26479;DHT22;14163;-26.142;27.992;2023-11-18T02:50:33;23.40;99.90
26479;DHT22;14163;-26.142;27.992;2023-11-18T02:53:03;23.40;99.90
26479;DHT22;14163;-26.142;27.992;2023-11-18T02:55:32;23.40;99.90
26479;DHT22;14163;-26.142;27.992;2023-11-18T02:58:03;23.40;99.90
26479;DHT22;14163;-26.142;27.992;2023-11-18T03:00:32;23.40;99.90
26479;DHT22;14163;-26.142;27.992;2023-11-18T03:03:01;23.40;99.90
26479;DHT22;14163;-26.142;27.992;2023-11-18T03:05:31;23.40;99.90
26479;DHT22;14163;-26.142;27.992;2023-11-18T03:08:00;23.40;99.90
26479;DHT22;14163;-26.142;27.992;2023-11-18T03:10:33;23.50;99.90
26479;DHT22;14163;-26.142;27.992;2023-11-18T03:13:03;23.40;99.90
26479;DHT22;14163;-26.142;27.992;2023-11-18T03:15:33;23.40;99.90
26479;DHT22;14163;-26.142;27.992;2023-11-18T03:18:02;23.40;99.90
26479;DHT22;14163;-26.142;27.992;2023-11-18T03:20:34;23.40;99.90
26479;DHT22;14163;-26.142;27.992;2023-11-18T03:23:03;23.40;99.90
26479;DHT22;14163;-26.142;27.992;2023-11-18T03:25:34;23.50;99.90
26479;DHT22;14163;-26.142;27.992;2023-11-18T03:28:06;23.50;99.90
26479;DHT22;14163;-26.142;27.992;2023-11-18T03:30:36;23.50;99.90
26479;DHT22;14163;-26.142;27.992;2023-11-18T03:33:05;23.50;99.90
26479;DHT22;14163;-26.142;27.992;2023-11-18T03:35:37;23.60;99.90
26479;DHT22;14163;-26.142;27.992;2023-11-18T03:38:06;23.60;99.90
26479;DHT22;14163;-26.142;27.992;2023-11-18T03:40:35;23.60;99.90
26479;DHT22;14163;-26.142;27.992;2023-11-18T03:43:06;23.60;99.90
26479;DHT22;14163;-26.142;27.992;2023-11-18T03:45:39;23.60;99.90
26479;DHT22;14163;-26.142;27.992;2023-11-18T03:48:09;23.70;99.90
26479;DHT22;14163;-26.142;27.992;2023-11-18T03:50:41;23.70;99.90
26479;DHT22;14163;-26.142;27.992;2023-11-18T03:53:12;23.70;99.90
26479;DHT22;14163;-26.142;27.992;2023-11-18T03:55:41;23.80;99.90
26479;DHT22;14163;-26.142;27.992;2023-11-18T03:58:12;23.80;99.90
26479;DHT22;14163;-26.142;27.992;2023-11-18T04:00:41;23.90;99.90
26479;DHT22;14163;-26.142;27.992;2023-11-18T04:03:11;23.90;99.90
26479;DHT22;14163;-26.142;27.992;2023-11-18T04:05:40;23.90;99.90
26479;DHT22;14163;-26.142;27.992;2023-11-18T04:08:09;23.90;99.90
26479;DHT22;14163;-26.142;27.992;2023-11-18T04:10:38;23.80;99.90
26479;DHT22;14163;-26.142;27.992;2023-11-18T04:13:08;23.80;99.90
26479;DHT22;14163;-26.142;27.992;2023-11-18T04:15:38;23.80;99.90
26479;DHT22;14163;-26.142;27.992;2023-11-18T04:18:07;23.90;99.90
26479;DHT22;14163;-26.142;27.992;2023-11-18T04:20:37;23.90;99.90
26479;DHT22;14163;-26.142;27.992;2023-11-18T04:23:06;23.90;99.90
26479;DHT22;14163;-26.142;27.992;2023-11-18T04:25:35;23.80;99.90
26479;DHT22;14163;-26.142;27.992;2023-11-18T04:28:04;23.80;99.90
26479;DHT22;14163;-26.142;27.992;2023-11-18T04:30:33;23.70;99.90
26479;DHT22;14163;-26.142;27.992;2023-11-18T04:33:04;23.50;99.90
26479;DHT22;14163;-26.142;27.992;2023-11-18T04:35:33;23.40;99.90
26479;DHT22;14163;-26.142;27.992;2023-11-18T04:38:02;23.40;99.90
26479;DHT22;14163;-26.142;27.992;2023-11-18T04:40:32;23.40;99.90
26479;DHT22;14163;-26.142;27.992;2023-11-18T04:43:01;23.40;99.90
26479;DHT22;14163;-26.142;27.992;2023-11-18T04:45:30;23.50;99.90
26479;DHT22;14163;-26.142;27.992;2023-11-18T04:47:59;23.50;99.90
26479;DHT22;14163;-26.142;27.992;2023-11-18T04:50:31;23.50;99.90
26479;DHT22;14163;-26.142;27.992;2023-11-18T04:53:00;23.50;99.90
26479;DHT22;14163;-26.142;27.992;2023-11-18T04:55:30;23.40;99.90
26479;DHT22;14163;-26.142;27.992;2023-11-18T04:57:59;23.30;99.90
26479;DHT22;14163;-26.142;27.992;2023-11-18T05:00:29;23.30;99.90
26479;DHT22;14163;-26.142;27.992;2023-11-18T05:02:59;23.30;99.90
26479;DHT22;14163;-26.142;27.992;2023-11-18T05:05:32;23.30;99.90
26479;DHT22;14163;-26.142;27.992;2023-11-18T05:08:01;23.30;99.90
26479;DHT22;14163;-26.142;27.992;2023-11-18T05:10:30;23.20;99.90
26479;DHT22;14163;-26.142;27.992;2023-11-18T05:12:59;23.10;99.90
26479;DHT22;14163;-26.142;27.992;2023-11-18T05:15:28;23.10;99.90
26479;DHT22;14163;-26.142;27.992;2023-11-18T05:17:58;23.10;99.90
26479;DHT22;14163;-26.142;27.992;2023-11-18T05:20:27;23.20;99.90
26479;DHT22;14163;-26.142;27.992;2023-11-18T05:22:58;23.30;99.90
26479;DHT22;14163;-26.142;27.992;2023-11-18T05:25:27;23.30;99.90
26479;DHT22;14163;-26.142;27.992;2023-11-18T05:27:56;23.30;99.90
26479;DHT22;14163;-26.142;27.992;2023-11-18T05:30:25;23.40;99.90
26479;DHT22;14163;-26.142;27.992;2023-11-18T05:32:54;23.50;99.90
26479;DHT22;14163;-26.142;27.992;2023-11-18T05:35:25;23.60;99.90
26479;DHT22;14163;-26.142;27.992;2023-11-18T05:37:57;23.60;99.90
26479;DHT22;14163;-26.142;27.992;2023-11-18T05:40:26;23.60;99.90
26479;DHT22;14163;-26.142;27.992;2023-11-18T05:42:56;23.60;99.90
26479;DHT22;14163;-26.142;27.992;2023-11-18T05:45:25;23.80;99.90
26479;DHT22;14163;-26.142;27.992;2023-11-18T05:48:03;23.90;99.90
26479;DHT22;14163;-26.142;27.992;2023-11-18T05:50:33;23.90;99.90
26479;DHT22;14163;-26.142;27.992;2023-11-18T05:53:03;23.90;99.90
26479;DHT22;14163;-26.142;27.992;2023-11-18T05:55:32;24.00;99.90
26479;DHT22;14163;-26.142;27.992;2023-11-18T05:58:02;24.10;99.90
26479;DHT22;14163;-26.142;27.992;2023-11-18T06:00:31;24.20;99.90
26479;DHT22;14163;-26.142;27.992;2023-11-18T06:03:00;24.30;99.90
26479;DHT22;14163;-26.142;27.992;2023-11-18T06:05:29;24.10;99.90
26479;DHT22;14163;-26.142;27.992;2023-11-18T06:07:58;24.10;99.90
26479;DHT22;14163;-26.142;27.992;2023-11-18T06:10:29;24.10;99.90
26479;DHT22;14163;-26.142;27.992;2023-11-18T06:12:59;24.10;99.90
26479;DHT22;14163;-26.142;27.992;2023-11-18T06:15:28;24.20;99.90
26479;DHT22;14163;-26.142;27.992;2023-11-18T06:17:57;24.20;99.90
26479;DHT22;14163;-26.142;27.992;2023-11-18T06:20:26;24.30;99.90
26479;DHT22;14163;-26.142;27.992;2023-11-18T06:22:55;24.30;99.90
26479;DHT22;14163;-26.142;27.992;2023-11-18T06:25:24;24.30;99.90
26479;DHT22;14163;-26.142;27.992;2023-11-18T06:27:56;24.30;99.90
26479;DHT22;14163;-26.142;27.992;2023-11-18T06:30:25;24.40;99.90
26479;DHT22;14163;-26.142;27.992;2023-11-18T06:32:54;24.50;99.90
26479;DHT22;14163;-26.142;27.992;2023-11-18T06:35:23;24.50;99.90
26479;DHT22;14163;-26.142;27.992;2023-11-18T06:37:53;24.70;99.90
26479;DHT22;14163;-26.142;27.992;2023-11-18T06:40:23;24.70;99.90
26479;DHT22;14163;-26.142;27.992;2023-11-18T06:42:55;24.70;99.90
26479;DHT22;14163;-26.142;27.992;2023-11-18T06:45:29;24.70;99.90
26479;DHT22;14163;-26.142;27.992;2023-11-18T06:47:59;24.80;99.90
26479;DHT22;14163;-26.142;27.992;2023-11-18T06:50:28;24.80;99.90
26479;DHT22;14163;-26.142;27.992;2023-11-18T06:52:57;24.70;99.90
26479;DHT22;14163;-26.142;27.992;2023-11-18T06:55:27;24.80;99.90
26479;DHT22;14163;-26.142;27.992;2023-11-18T06:57:58;24.90;99.90
26479;DHT22;14163;-26.142;27.992;2023-11-18T07:00:27;25.00;99.90
26479;DHT22;14163;-26.142;27.992;2023-11-18T07:02:56;25.00;99.90
26479;DHT22;14163;-26.142;27.992;2023-11-18T07:05:26;25.00;99.90
26479;DHT22;14163;-26.142;27.992;2023-11-18T07:07:55;25.00;99.90
26479;DHT22;14163;-26.142;27.992;2023-11-18T07:10:24;25.10;99.90
26479;DHT22;14163;-26.142;27.992;2023-11-18T07:12:54;25.20;99.90
26479;DHT22;14163;-26.142;27.992;2023-11-18T07:15:25;25.30;99.90
26479;DHT22;14163;-26.142;27.992;2023-11-18T07:17:54;25.40;99.90
26479;DHT22;14163;-26.142;27.992;2023-11-18T07:20:23;25.40;99.90
26479;DHT22;14163;-26.142;27.992;2023-11-18T07:22:52;25.50;99.90
26479;DHT22;14163;-26.142;27.992;2023-11-18T07:25:22;25.50;99.90
26479;DHT22;14163;-26.142;27.992;2023-11-18T07:27:51;25.50;99.90
26479;DHT22;14163;-26.142;27.992;2023-11-18T07:30:20;25.50;99.90
26479;DHT22;14163;-26.142;27.992;2023-11-18T07:32:53;25.60;99.90
26479;DHT22;14163;-26.142;27.992;2023-11-18T07:35:25;25.50;99.90
26479;DHT22;14163;-26.142;27.992;2023-11-18T07:37:55;25.70;99.90
26479;DHT22;14163;-26.142;27.992;2023-11-18T07:40:25;25.90;99.90
26479;DHT22;14163;-26.142;27.992;2023-11-18T07:42:56;25.90;99.90
26479;DHT22;14163;-26.142;27.992;2023-11-18T07:45:28;26.00;99.90
26479;DHT22;14163;-26.142;27.992;2023-11-18T07:48:06;26.10;99.90
26479;DHT22;14163;-26.142;27.992;2023-11-18T07:50:36;26.10;99.90
26479;DHT22;14163;-26.142;27.992;2023-11-18T07:53:05;26.10;99.90
26479;DHT22;14163;-26.142;27.992;2023-11-18T07:55:35;26.20;99.90
26479;DHT22;14163;-26.142;27.992;2023-11-18T07:58:06;26.30;99.90
26479;DHT22;14163;-26.142;27.992;2023-11-18T08:00:37;26.40;99.90
26479;DHT22;14163;-26.142;27.992;2023-11-18T08:03:09;26.50;99.90
26479;DHT22;14163;-26.142;27.992;2023-11-18T08:05:40;26.60;99.90
26479;DHT22;14163;-26.142;27.992;2023-11-18T08:08:10;26.60;99.90
26479;DHT22;14163;-26.142;27.992;2023-11-18T08:10:40;26.60;99.90
26479;DHT22;14163;-26.142;27.992;2023-11-18T08:13:11;26.50;99.90
26479;DHT22;14163;-26.142;27.992;2023-11-18T08:15:41;26.50;99.90
26479;DHT22;14163;-26.142;27.992;2023-11-18T08:18:13;26.50;99.90
26479;DHT22;14163;-26.142;27.992;2023-11-18T08:20:44;26.50;99.90
26479;DHT22;14163;-26.142;27.992;2023-11-18T08:23:13;26.70;99.90
26479;DHT22;14163;-26.142;27.992;2023-11-18T08:25:42;26.80;99.90
26479;DHT22;14163;-26.142;27.992;2023-11-18T08:28:13;26.80;99.90
26479;DHT22;14163;-26.142;27.992;2023-11-18T08:30:43;26.80;99.90
26479;DHT22;14163;-26.142;27.992;2023-11-18T08:33:17;26.70;99.90
26479;DHT22;14163;-26.142;27.992;2023-11-18T08:35:46;26.80;99.90
26479;DHT22;14163;-26.142;27.992;2023-11-18T08:38:15;27.00;99.90
26479;DHT22;14163;-26.142;27.992;2023-11-18T08:40:44;27.20;99.90
26479;DHT22;14163;-26.142;27.992;2023-11-18T08:43:15;27.20;99.90
26479;DHT22;14163;-26.142;27.992;2023-11-18T08:45:44;27.30;99.90
26479;DHT22;14163;-26.142;27.992;2023-11-18T08:48:14;27.50;99.90
26479;DHT22;14163;-26.142;27.992;2023-11-18T08:50:46;27.50;99.90
26479;DHT22;14163;-26.142;27.992;2023-11-18T08:53:16;27.50;99.90
26479;DHT22;14163;-26.142;27.992;2023-11-18T08:55:50;27.60;99.90
26479;DHT22;14163;-26.142;27.992;2023-11-18T08:58:20;27.70;99.90
26479;DHT22;14163;-26.142;27.992;2023-11-18T09:00:55;27.60;99.90
26479;DHT22;14163;-26.142;27.992;2023-11-18T09:03:23;27.70;99.90
26479;DHT22;14163;-26.142;27.992;2023-11-18T09:05:57;27.80;99.90
26479;DHT22;14163;-26.142;27.992;2023-11-18T09:08:32;27.80;99.90
26479;DHT22;14163;-26.142;27.992;2023-11-18T09:11:02;27.80;99.90
26479;DHT22;14163;-26.142;27.992;2023-11-18T09:13:32;27.90;99.90
26479;DHT22;14163;-26.142;27.992;2023-11-18T09:16:02;28.00;99.90
26479;DHT22;14163;-26.142;27.992;2023-11-18T09:18:35;28.10;99.90
26479;DHT22;14163;-26.142;27.992;2023-11-18T09:21:07;28.20;99.90
26479;DHT22;14163;-26.142;27.992;2023-11-18T09:23:41;28.30;99.90
26479;DHT22;14163;-26.142;27.992;2023-11-18T09:26:11;28.30;99.90
26479;DHT22;14163;-26.142;27.992;2023-11-18T09:28:41;28.40;99.90
26479;DHT22;14163;-26.142;27.992;2023-11-18T09:31:11;28.50;99.90
26479;DHT22;14163;-26.142;27.992;2023-11-18T09:33:42;28.70;99.90
26479;DHT22;14163;-26.142;27.992;2023-11-18T09:36:20;28.70;99.90
26479;DHT22;14163;-26.142;27.992;2023-11-18T09:38:49;28.80;99.90
26479;DHT22;14163;-26.142;27.992;2023-11-18T09:41:23;28.90;99.90
26479;DHT22;14163;-26.142;27.992;2023-11-18T09:43:54;29.20;99.90
26479;DHT22;14163;-26.142;27.992;2023-11-18T09:46:24;29.40;99.90
26479;DHT22;14163;-26.142;27.992;2023-11-18T09:48:57;29.40;99.90
26479;DHT22;14163;-26.142;27.992;2023-11-18T09:51:39;29.40;99.90
26479;DHT22;14163;-26.142;27.992;2023-11-18T09:54:18;29.40;99.90
26479;DHT22;14163;-26.142;27.992;2023-11-18T09:56:55;29.40;99.90
26479;DHT22;14163;-26.142;27.992;2023-11-18T09:59:32;29.40;99.90
26479;DHT22;14163;-26.142;27.992;2023-11-18T10:02:03;29.50;99.90
26479;DHT22;14163;-26.142;27.992;2023-11-18T10:04:34;29.60;99.90
26479;DHT22;14163;-26.142;27.992;2023-11-18T10:07:06;29.70;99.90
26479;DHT22;14163;-26.142;27.992;2023-11-18T10:09:37;29.80;99.90
26479;DHT22;14163;-26.142;27.992;2023-11-18T10:12:08;29.70;99.90
26479;DHT22;14163;-26.142;27.992;2023-11-18T10:14:42;29.60;99.90
26479;DHT22;14163;-26.142;27.992;2023-11-18T10:17:12;29.50;99.90
26479;DHT22;14163;-26.142;27.992;2023-11-18T10:19:54;29.40;99.90
26479;DHT22;14163;-26.142;27.992;2023-11-18T10:22:26;29.40;99.90
26479;DHT22;14163;-26.142;27.992;2023-11-18T10:24:56;29.50;99.90
26479;DHT22;14163;-26.142;27.992;2023-11-18T10:27:28;29.50;99.90
26479;DHT22;14163;-26.142;27.992;2023-11-18T10:29:57;29.60;99.90
26479;DHT22;14163;-26.142;27.992;2023-11-18T10:32:29;29.70;99.90
26479;DHT22;14163;-26.142;27.992;2023-11-18T10:35:03;29.80;99.90
26479;DHT22;14163;-26.142;27.992;2023-11-18T10:37:36;29.80;99.90
26479;DHT22;14163;-26.142;27.992;2023-11-18T10:40:10;29.80;99.90
26479;DHT22;14163;-26.142;27.992;2023-11-18T10:42:41;29.80;99.90
26479;DHT22;14163;-26.142;27.992;2023-11-18T10:45:24;29.80;99.90
26479;DHT22;14163;-26.142;27.992;2023-11-18T10:47:55;29.80;99.90
26479;DHT22;14163;-26.142;27.992;2023-11-18T10:50:25;29.80;99.90
26479;DHT22;14163;-26.142;27.992;2023-11-18T10:53:01;30.00;99.90
26479;DHT22;14163;-26.142;27.992;2023-11-18T10:55:38;30.10;99.90
26479;DHT22;14163;-26.142;27.992;2023-11-18T10:58:07;30.10;99.90
26479;DHT22;14163;-26.142;27.992;2023-11-18T11:00:49;30.10;99.90
26479;DHT22;14163;-26.142;27.992;2023-11-18T11:03:20;30.30;99.90
26479;DHT22;14163;-26.142;27.992;2023-11-18T11:05:51;30.30;99.90
26479;DHT22;14163;-26.142;27.992;2023-11-18T11:08:23;30.30;99.90
26479;DHT22;14163;-26.142;27.992;2023-11-18T11:10:53;30.30;99.90
26479;DHT22;14163;-26.142;27.992;2023-11-18T11:13:25;30.20;99.90
26479;DHT22;14163;-26.142;27.992;2023-11-18T11:15:56;30.10;99.90
26479;DHT22;14163;-26.142;27.992;2023-11-18T11:18:28;30.30;99.90
26479;DHT22;14163;-26.142;27.992;2023-11-18T11:21:09;30.50;99.90
26479;DHT22;14163;-26.142;27.992;2023-11-18T11:23:50;30.70;99.90
26479;DHT22;14163;-26.142;27.992;2023-11-18T11:26:31;30.70;99.90
26479;DHT22;14163;-26.142;27.992;2023-11-18T11:29:25;30.80;99.90
26479;DHT22;14163;-26.142;27.992;2023-11-18T11:32:02;30.80;99.90
26479;DHT22;14163;-26.142;27.992;2023-11-18T11:34:41;30.90;99.90
26479;DHT22;14163;-26.142;27.992;2023-11-18T11:37:15;31.00;99.90
26479;DHT22;14163;-26.142;27.992;2023-11-18T11:39:47;31.10;99.90
26479;DHT22;14163;-26.142;27.992;2023-11-18T11:42:18;31.20;99.30
26479;DHT22;14163;-26.142;27.992;2023-11-18T11:44:48;31.20;98.00
26479;DHT22;14163;-26.142;27.992;2023-11-18T11:47:20;31.20;98.00
26479;DHT22;14163;-26.142;27.992;2023-11-18T11:50:03;31.20;98.70
26479;DHT22;14163;-26.142;27.992;2023-11-18T11:52:44;31.20;98.80
26479;DHT22;14163;-26.142;27.992;2023-11-18T11:55:23;31.10;97.70
26479;DHT22;14163;-26.142;27.992;2023-11-18T11:57:52;31.00;99.80
26479;DHT22;14163;-26.142;27.992;2023-11-18T12:00:24;31.00;99.70
26479;DHT22;14163;-26.142;27.992;2023-11-18T12:03:02;30.80;98.60
26479;DHT22;14163;-26.142;27.992;2023-11-18T12:05:32;30.60;99.90
26479;DHT22;14163;-26.142;27.992;2023-11-18T12:08:01;30.40;99.90
26479;DHT22;14163;-26.142;27.992;2023-11-18T12:10:36;30.30;99.90
26479;DHT22;14163;-26.142;27.992;2023-11-18T12:13:10;30.20;99.90
26479;DHT22;14163;-26.142;27.992;2023-11-18T12:15:50;30.10;99.90
26479;DHT22;14163;-26.142;27.992;2023-11-18T12:18:25;30.00;99.90
26479;DHT22;14163;-26.142;27.992;2023-11-18T12:20:55;29.90;99.90
26479;DHT22;14163;-26.142;27.992;2023-11-18T12:23:24;29.90;99.90
26479;DHT22;14163;-26.142;27.992;2023-11-18T12:25:55;29.80;99.90
26479;DHT22;14163;-26.142;27.992;2023-11-18T12:28:28;29.80;99.90
26479;DHT22;14163;-26.142;27.992;2023-11-18T12:31:02;29.80;99.90
26479;DHT22;14163;-26.142;27.992;2023-11-18T12:34:02;29.70;99.90
26479;DHT22;14163;-26.142;27.992;2023-11-18T12:43:02;29.70;99.90
26479;DHT22;14163;-26.142;27.992;2023-11-18T12:46:07;29.40;99.90
26479;DHT22;14163;-26.142;27.992;2023-11-18T12:48:43;29.30;99.90
26479;DHT22;14163;-26.142;27.992;2023-11-18T12:51:16;29.30;99.90
26479;DHT22;14163;-26.142;27.992;2023-11-18T12:53:51;29.20;99.90
26479;DHT22;14163;-26.142;27.992;2023-11-18T12:56:21;29.00;99.90
26479;DHT22;14163;-26.142;27.992;2023-11-18T12:58:53;28.80;99.90
26479;DHT22;14163;-26.142;27.992;2023-11-18T13:01:23;28.80;99.90
26479;DHT22;14163;-26.142;27.992;2023-11-18T13:03:54;28.70;99.90
26479;DHT22;14163;-26.142;27.992;2023-11-18T13:06:23;28.50;99.90
26479;DHT22;14163;-26.142;27.992;2023-11-18T13:08:55;28.50;99.90
26479;DHT22;14163;-26.142;27.992;2023-11-18T13:11:25;28.50;99.90
26479;DHT22;14163;-26.142;27.992;2023-11-18T13:13:56;28.50;99.90
26479;DHT22;14163;-26.142;27.992;2023-11-18T13:16:28;28.60;99.90
26479;DHT22;14163;-26.142;27.992;2023-11-18T13:18:57;28.60;99.90
26479;DHT22;14163;-26.142;27.992;2023-11-18T13:21:26;28.60;99.90
26479;DHT22;14163;-26.142;27.992;2023-11-18T13:23:57;28.50;99.90
26479;DHT22;14163;-26.142;27.992;2023-11-18T13:26:26;28.50;99.90
26479;DHT22;14163;-26.142;27.992;2023-11-18T13:29:00;28.50;99.90
26479;DHT22;14163;-26.142;27.992;2023-11-18T13:31:29;28.50;99.90
26479;DHT22;14163;-26.142;27.992;2023-11-18T13:34:02;28.40;99.90
26479;DHT22;14163;-26.142;27.992;2023-11-18T13:36:31;28.20;99.90
26479;DHT22;14163;-26.142;27.992;2023-11-18T13:39:01;28.20;99.90
26479;DHT22;14163;-26.142;27.992;2023-11-18T13:41:33;28.00;99.90
26479;DHT22;14163;-26.142;27.992;2023-11-18T13:44:05;28.10;99.90
26479;DHT22;14163;-26.142;27.992;2023-11-18T13:46:38;28.00;99.90
26479;DHT22;14163;-26.142;27.992;2023-11-18T13:49:08;28.00;99.90
26479;DHT22;14163;-26.142;27.992;2023-11-18T13:51:38;28.10;99.90
26479;DHT22;14163;-26.142;27.992;2023-11-18T13:54:07;28.10;99.90
26479;DHT22;14163;-26.142;27.992;2023-11-18T13:56:37;28.10;99.90
26479;DHT22;14163;-26.142;27.992;2023-11-18T13:59:07;27.90;99.90
26479;DHT22;14163;-26.142;27.992;2023-11-18T14:01:36;27.70;99.90
26479;DHT22;14163;-26.142;27.992;2023-11-18T14:04:06;27.60;99.90
26479;DHT22;14163;-26.142;27.992;2023-11-18T14:06:36;27.40;99.90
26479;DHT22;14163;-26.142;27.992;2023-11-18T14:09:06;27.30;99.90
26479;DHT22;14163;-26.142;27.992;2023-11-18T14:11:37;27.20;99.90
26479;DHT22;14163;-26.142;27.992;2023-11-18T14:14:08;27.10;99.90
26479;DHT22;14163;-26.142;27.992;2023-11-18T14:16:37;27.10;99.90
26479;DHT22;14163;-26.142;27.992;2023-11-18T14:19:06;27.00;99.90
26479;DHT22;14163;-26.142;27.992;2023-11-18T14:21:37;27.00;99.90
26479;DHT22;14163;-26.142;27.992;2023-11-18T14:24:08;26.90;99.90
26479;DHT22;14163;-26.142;27.992;2023-11-18T14:26:37;27.00;99.90
26479;DHT22;14163;-26.142;27.992;2023-11-18T14:29:08;27.00;99.90
26479;DHT22;14163;-26.142;27.992;2023-11-18T14:31:38;27.10;99.90
26479;DHT22;14163;-26.142;27.992;2023-11-18T14:34:08;27.10;99.90
26479;DHT22;14163;-26.142;27.992;2023-11-18T14:36:37;27.30;99.90
26479;DHT22;14163;-26.142;27.992;2023-11-18T14:39:08;27.40;99.90
26479;DHT22;14163;-26.142;27.992;2023-11-18T14:41:40;27.50;99.90
26479;DHT22;14163;-26.142;27.992;2023-11-18T14:44:12;27.50;99.90
26479;DHT22;14163;-26.142;27.992;2023-11-18T14:46:41;27.60;99.90
26479;DHT22;14163;-26.142;27.992;2023-11-18T14:49:10;27.70;99.90
26479;DHT22;14163;-26.142;27.992;2023-11-18T14:51:39;27.80;99.90
26479;DHT22;14163;-26.142;27.992;2023-11-18T14:54:13;27.90;99.90
26479;DHT22;14163;-26.142;27.992;2023-11-18T14:56:43;28.00;99.90
26479;DHT22;14163;-26.142;27.992;2023-11-18T14:59:16;28.20;99.90
26479;DHT22;14163;-26.142;27.992;2023-11-18T15:01:48;28.10;99.90
26479;DHT22;14163;-26.142;27.992;2023-11-18T15:04:19;28.10;99.90
26479;DHT22;14163;-26.142;27.992;2023-11-18T15:06:48;28.10;99.90
26479;DHT22;14163;-26.142;27.992;2023-11-18T15:09:19;28.00;99.90
26479;DHT22;14163;-26.142;27.992;2023-11-18T15:11:51;28.00;99.90
26479;DHT22;14163;-26.142;27.992;2023-11-18T15:14:22;28.00;99.90
26479;DHT22;14163;-26.142;27.992;2023-11-18T15:16:51;27.90;99.90
26479;DHT22;14163;-26.142;27.992;2023-11-18T15:19:20;28.00;99.90
26479;DHT22;14163;-26.142;27.992;2023-11-18T15:21:49;28.10;99.90
26479;DHT22;14163;-26.142;27.992;2023-11-18T15:24:19;28.00;99.90
26479;DHT22;14163;-26.142;27.992;2023-11-18T15:26:49;27.90;99.90
26479;DHT22;14163;-26.142;27.992;2023-11-18T15:29:20;27.80;99.90
26479;DHT22;14163;-26.142;27.992;2023-11-18T15:31:55;27.60;99.90
26479;DHT22;14163;-26.142;27.992;2023-11-18T15:34:24;27.60;99.90